Time;durP1;ratioP1;P1;durP2;ratioP2;P2;SDS_P1;SDS_P2;PMS_P1;PMS_P2;Temp;Humidity;BMP_temperature;BMP_pressure;BME280_temperature;BME280_humidity;BME280_pressure;Samples;Min_cycle;Max_cycle;Signal;HPM_P1;HPM_P2
2024/01/02 05:22:33;;;;;;;0.22;0.22;;;;;;;7.47;100.00;98893.38;5130176;27;20901;-35
2024/01/02 05:24:58;;;;;;;0.17;0.17;;;;;;;7.52;100.00;98888.34;5130134;28;20040;-36
2024/01/02 05:27:23;;;;;;;1.00;0.25;;;;;;;7.62;100.00;98887.03;5129984;28;20145;-35
2024/01/02 05:29:49;;;;;;;0.20;0.20;;;;;;;7.57;100.00;98881.47;5130078;27;20042;-34
2024/01/02 05:32:14;;;;;;;0.35;0.30;;;;;;;7.58;100.00;98872.53;5129913;28;20110;-36
2024/01/02 05:34:39;;;;;;;0.25;0.25;;;;;;;7.67;100.00;98865.25;5129855;28;20065;-33
2024/01/02 05:37:05;;;;;;;0.20;0.20;;;;;;;7.71;100.00;98855.13;5129520;28;20035;-34
2024/01/02 05:39:30;;;;;;;0.20;0.20;;;;;;;7.68;100.00;98853.66;5129839;28;20521;-38
2024/01/02 05:41:56;;;;;;;0.77;0.20;;;;;;;7.59;100.00;98845.00;5129834;28;20448;-34
2024/01/02 05:44:21;;;;;;;0.30;0.30;;;;;;;7.60;100.00;98843.19;5129836;28;20040;-33
2024/01/02 05:46:46;;;;;;;0.20;0.20;;;;;;;7.74;100.00;98821.09;5129094;27;20040;-36
2024/01/02 05:49:12;;;;;;;0.20;0.20;;;;;;;7.79;100.00;98824.00;5129698;27;20062;-34
2024/01/02 05:51:37;;;;;;;0.57;0.30;;;;;;;7.70;100.00;98824.31;5129654;27;20092;-36
2024/01/02 05:54:02;;;;;;;0.30;0.22;;;;;;;7.69;100.00;98812.88;5129586;27;20040;-34
2024/01/02 05:56:28;;;;;;;0.35;0.32;;;;;;;7.80;100.00;98828.28;5129164;28;20058;-34
2024/01/02 05:58:53;;;;;;;0.47;0.15;;;;;;;7.86;100.00;98818.75;5128363;28;20039;-33
2024/01/02 06:01:19;;;;;;;0.30;0.30;;;;;;;7.85;100.00;98836.50;5134162;27;20035;-35
2024/01/02 06:03:44;;;;;;;0.20;0.15;;;;;;;7.79;100.00;98831.94;5129328;27;20044;-38
2024/01/02 06:06:10;;;;;;;0.35;0.30;;;;;;;7.75;100.00;98829.84;5129671;27;20047;-36
2024/01/02 06:08:35;;;;;;;0.20;0.20;;;;;;;7.75;100.00;98838.63;5129232;27;20035;-36
2024/01/02 06:11:00;;;;;;;0.52;0.20;;;;;;;7.80;100.00;98820.34;5128955;27;20035;-37
2024/01/02 06:13:26;;;;;;;0.45;0.38;;;;;;;7.88;100.00;98816.72;5129114;27;20050;-35
2024/01/02 06:15:51;;;;;;;0.10;0.10;;;;;;;7.91;100.00;98808.41;5129038;27;20071;-36
2024/01/02 06:18:16;;;;;;;0.20;0.20;;;;;;;8.01;100.00;98800.94;5129081;27;20050;-35
2024/01/02 06:20:42;;;;;;;0.20;0.20;;;;;;;8.17;100.00;98799.84;5122264;27;20040;-36
2024/01/02 06:23:07;;;;;;;0.13;0.13;;;;;;;8.13;100.00;98802.06;5128979;28;20043;-36
2024/01/02 06:25:33;;;;;;;0.65;0.43;;;;;;;8.12;100.00;98797.75;5129010;27;20095;-36
2024/01/02 06:27:58;;;;;;;0.15;0.15;;;;;;;8.18;100.00;98798.00;5128846;27;20044;-34
2024/01/02 06:30:24;;;;;;;0.20;0.20;;;;;;;8.23;100.00;98798.25;5129035;28;20027;-33
2024/01/02 06:32:50;;;;;;;0.20;0.20;;;;;;;8.24;100.00;98794.59;5121406;27;20039;-36
2024/01/02 06:35:15;;;;;;;0.20;0.20;;;;;;;8.38;100.00;98801.66;5115090;27;20031;-37
2024/01/02 06:37:40;;;;;;;0.20;0.20;;;;;;;8.36;100.00;98777.97;5114804;27;20407;-36
2024/01/02 06:40:08;;;;;;;0.40;0.30;;;;;;;8.31;100.00;98798.91;5114848;28;20028;-36
2024/01/02 06:42:34;;;;;;;;;;;;;;;8.42;100.00;98795.78;5115392;28;20047;-33
2024/01/02 06:44:59;;;;;;;0.10;0.10;;;;;;;8.34;100.00;98787.91;5114963;28;19912;-34
2024/01/02 06:47:24;;;;;;;0.63;0.20;;;;;;;8.25;100.00;98799.69;5114554;28;20039;-34
2024/01/02 06:49:50;;;;;;;0.45;0.28;;;;;;;8.27;100.00;98802.97;5114933;28;20386;-34
2024/01/02 06:52:16;;;;;;;0.43;0.20;;;;;;;8.33;100.00;98799.53;5114965;28;20035;-37
2024/01/02 06:54:41;;;;;;;0.20;0.20;;;;;;;8.28;100.00;98798.47;5114851;28;20043;-35
2024/01/02 06:57:08;;;;;;;0.20;0.20;;;;;;;8.30;100.00;98801.78;5114491;28;20126;-34
2024/01/02 06:59:33;;;;;;;0.17;0.17;;;;;;;8.21;100.00;98814.34;5114877;28;20417;-36
2024/01/02 07:01:58;;;;;;;0.38;0.30;;;;;;;8.15;100.00;98828.41;5114543;27;20048;-34
2024/01/02 07:04:24;;;;;;;0.20;0.20;;;;;;;8.44;100.00;98827.41;5114675;27;20057;-34
2024/01/02 07:06:50;;;;;;;0.30;0.30;;;;;;;8.18;100.00;98828.00;5114371;28;20093;-34
2024/01/02 07:09:15;;;;;;;0.20;0.20;;;;;;;8.50;100.00;98825.81;5114487;28;20039;-35
2024/01/02 07:11:41;;;;;;;0.30;0.20;;;;;;;8.24;100.00;98827.25;5114614;28;20024;-36
2024/01/02 07:14:06;;;;;;;0.15;0.13;;;;;;;8.47;100.00;98844.78;5114501;28;20482;-34
2024/01/02 07:16:32;;;;;;;0.10;0.10;;;;;;;9.12;100.00;98840.84;5113603;27;20047;-35
2024/01/02 07:18:57;;;;;;;0.30;0.30;;;;;;;9.00;100.00;98847.75;5114285;27;20043;-35
2024/01/02 07:21:23;;;;;;;0.20;0.20;;;;;;;8.31;100.00;98844.03;5114071;28;20042;-34
2024/01/02 07:23:48;;;;;;;0.28;0.22;;;;;;;8.25;100.00;98859.88;5114196;28;20126;-34
2024/01/02 07:26:14;;;;;;;0.52;0.32;;;;;;;8.32;100.00;98856.28;5113726;27;20115;-35
2024/01/02 07:28:39;;;;;;;1.00;0.20;;;;;;;8.29;100.00;98872.59;5113851;28;20491;-34
2024/01/02 07:31:05;;;;;;;0.17;0.17;;;;;;;8.28;100.00;98864.81;5113792;28;20031;-34
2024/01/02 07:33:30;;;;;;;0.30;0.30;;;;;;;8.28;100.00;98875.41;5113397;28;20039;-35
2024/01/02 07:35:56;;;;;;;0.28;0.28;;;;;;;8.35;100.00;98861.25;5112772;28;20031;-36
2024/01/02 07:38:25;;;;;;;0.80;0.30;;;;;;;8.43;100.00;98884.97;5113572;28;20230;-34
2024/01/02 07:40:52;;;;;;;0.98;0.20;;;;;;;8.34;100.00;98870.16;5113700;28;20051;-34
2024/01/02 07:43:17;;;;;;;0.20;0.20;;;;;;;8.35;100.00;98877.16;5113493;28;20475;-33
2024/01/02 07:45:43;;;;;;;0.30;0.30;;;;;;;8.35;100.00;98877.16;5112664;28;20036;-34
2024/01/02 07:48:08;;;;;;;0.40;0.30;;;;;;;8.26;100.00;98888.88;5113557;28;20062;-35
2024/01/02 07:50:34;;;;;;;1.00;0.30;;;;;;;8.28;100.00;98889.53;5113689;27;20126;-34
2024/01/02 07:52:59;;;;;;;0.25;0.20;;;;;;;8.54;100.00;98890.75;5115408;28;20039;-34
2024/01/02 07:55:25;;;;;;;0.90;0.40;;;;;;;8.70;100.00;98882.50;5116684;28;20128;-34
2024/01/02 07:57:50;;;;;;;0.40;0.40;;;;;;;8.92;100.00;98889.38;5114223;28;20036;-35
2024/01/02 08:00:16;;;;;;;0.38;0.38;;;;;;;8.43;100.00;98877.00;5113407;28;20036;-34
2024/01/02 08:02:41;;;;;;;0.60;0.40;;;;;;;8.17;100.00;98884.72;5113437;28;20119;-33
2024/01/02 08:05:07;;;;;;;0.38;0.38;;;;;;;8.30;100.00;98902.59;5112800;28;20046;-35
2024/01/02 08:07:33;;;;;;;0.50;0.32;;;;;;;8.22;100.00;98890.28;5112667;28;20031;-34
2024/01/02 08:09:58;;;;;;;0.40;0.35;;;;;;;8.19;100.00;98889.84;5112523;28;20093;-36
2024/01/02 08:12:23;;;;;;;0.32;0.30;;;;;;;8.18;100.00;98890.84;5112898;28;20040;-33
2024/01/02 08:14:49;;;;;;;0.55;0.30;;;;;;;8.19;100.00;98887.19;5112735;28;20042;-34
2024/01/02 08:17:15;;;;;;;0.25;0.25;;;;;;;8.24;100.00;98879.47;5112605;28;20048;-37
2024/01/02 08:19:40;;;;;;;0.70;0.40;;;;;;;8.22;100.00;98884.97;5112686;28;20118;-36
2024/01/02 08:22:07;;;;;;;0.38;0.32;;;;;;;8.14;100.00;98887.75;5112593;28;20107;-34
2024/01/02 08:24:32;;;;;;;0.25;0.25;;;;;;;8.22;100.00;98887.63;5112643;28;20494;-35
2024/01/02 08:26:58;;;;;;;0.65;0.35;;;;;;;8.14;100.00;98877.94;5112243;28;20039;-34
2024/01/02 08:29:23;;;;;;;0.40;0.40;;;;;;;8.21;100.00;98875.34;5112576;28;20446;-34
2024/01/02 08:31:49;;;;;;;0.32;0.32;;;;;;;8.23;100.00;98881.31;5112603;28;20034;-36
2024/01/02 08:34:14;;;;;;;0.20;0.20;;;;;;;8.29;100.00;98887.69;5112669;28;20039;-35
2024/01/02 08:36:39;;;;;;;0.60;0.35;;;;;;;8.38;100.00;98882.06;5112104;28;20065;-35
2024/01/02 08:39:05;;;;;;;0.70;0.30;;;;;;;8.40;100.00;98877.38;5112461;28;20042;-34
2024/01/02 08:41:31;;;;;;;0.85;0.50;;;;;;;8.40;100.00;98884.53;5112317;28;20032;-36
2024/01/02 08:43:57;;;;;;;0.20;0.20;;;;;;;8.36;100.00;98883.28;5112375;28;20047;-35
2024/01/02 08:46:22;;;;;;;0.40;0.35;;;;;;;8.43;100.00;98884.16;5111941;28;20149;-34
2024/01/02 08:48:48;;;;;;;0.20;0.20;;;;;;;8.45;100.00;98883.97;5112330;28;20359;-34
2024/01/02 08:51:13;;;;;;;0.20;0.20;;;;;;;8.48;100.00;98886.25;5112170;28;20028;-35
2024/01/02 08:53:38;;;;;;;0.20;0.20;;;;;;;8.61;100.00;98870.41;5112240;28;20044;-35
2024/01/02 08:56:04;;;;;;;0.30;0.30;;;;;;;8.61;100.00;98894.31;5111584;28;20043;-34
2024/01/02 08:58:29;;;;;;;0.40;0.30;;;;;;;8.56;100.00;98886.09;5112053;28;20070;-34
2024/01/02 09:00:55;;;;;;;0.43;0.22;;;;;;;8.54;100.00;98896.91;5112022;28;20078;-37
2024/01/02 09:03:20;;;;;;;1.02;0.50;;;;;;;8.55;100.00;98890.59;5111894;28;20035;-34
2024/01/02 09:05:46;;;;;;;0.10;0.10;;;;;;;8.57;100.00;98906.31;5111744;28;20542;-35
2024/01/02 09:08:11;;;;;;;0.32;0.32;;;;;;;8.72;100.00;98892.94;5112063;28;20043;-37
2024/01/02 09:10:37;;;;;;;0.73;0.40;;;;;;;8.69;100.00;98899.47;5116144;28;20031;-35
2024/01/02 09:13:03;;;;;;;1.90;1.13;;;;;;;8.76;100.00;98905.63;5114712;28;20043;-36
2024/01/02 09:15:29;;;;;;;0.68;0.57;;;;;;;8.65;100.00;98911.47;5111752;28;20043;-36
2024/01/02 09:17:55;;;;;;;0.73;0.40;;;;;;;8.82;100.00;98910.16;5111775;28;20042;-36
2024/01/02 09:20:21;;;;;;;0.40;0.30;;;;;;;8.73;100.00;98924.59;5111620;28;20126;-37
2024/01/02 09:22:46;;;;;;;0.32;0.28;;;;;;;8.76;100.00;98918.09;5111952;28;20067;-37
2024/01/02 09:25:14;;;;;;;2.03;1.23;;;;;;;8.77;100.00;98922.38;5112000;28;20039;-38
2024/01/02 09:27:42;;;;;;;1.08;0.65;;;;;;;8.74;100.00;98918.28;5111647;28;20072;-37
2024/01/02 09:30:10;;;;;;;1.20;0.80;;;;;;;8.88;100.00;98920.03;5109245;28;20110;-36
2024/01/02 09:32:35;;;;;;;0.93;0.73;;;;;;;8.81;100.00;98924.47;5111651;28;20128;-38
2024/01/02 09:35:01;;;;;;;0.60;0.50;;;;;;;8.92;100.00;98920.44;5111668;28;20546;-36
2024/01/02 09:37:27;;;;;;;0.75;0.40;;;;;;;8.81;100.00;98928.97;5111592;28;20042;-35
2024/01/02 09:39:53;;;;;;;0.47;0.47;;;;;;;8.81;100.00;98924.47;5112098;28;20074;-36
2024/01/02 09:42:47;;;;;;;0.25;0.25;;;;;;;8.97;100.00;98937.44;5111971;28;20036;-35
2024/01/02 09:45:50;;;;;;;0.30;0.30;;;;;;;8.93;100.00;98938.00;5110782;28;20116;-35
2024/01/02 09:48:29;;;;;;;3.35;0.40;;;;;;;8.96;100.00;98934.97;5112018;28;20485;-35
2024/01/02 09:51:22;;;;;;;0.25;0.25;;;;;;;8.94;100.00;98943.16;5112030;28;20041;-35
2024/01/02 09:54:01;;;;;;;0.80;0.80;;;;;;;8.86;100.00;98934.47;5111954;28;20051;-35
2024/01/02 09:56:39;;;;;;;0.20;0.20;;;;;;;8.99;100.00;98937.22;5111567;28;20042;-37
2024/01/02 09:59:49;;;;;;;0.52;0.43;;;;;;;8.90;100.00;98933.91;5112068;28;20039;-36
2024/01/02 10:02:42;;;;;;;0.20;0.20;;;;;;;8.89;100.00;98924.31;5111810;28;20039;-36
2024/01/02 10:05:37;;;;;;;1.00;0.30;;;;;;;9.05;100.00;98928.47;5111683;28;20039;-38
2024/01/02 10:08:40;;;;;;;1.05;0.70;;;;;;;9.08;100.00;98921.97;5110151;28;20047;-36
2024/01/02 10:11:14;;;;;;;0.40;0.40;;;;;;;8.96;100.00;98921.69;5115773;28;20394;-35
2024/01/02 10:13:48;;;;;;;0.63;0.63;;;;;;;8.90;100.00;98917.97;5115595;28;20100;-35
2024/01/02 10:16:43;;;;;;;0.60;0.50;;;;;;;9.04;100.00;98915.41;5115369;27;20479;-36
2024/01/02 10:19:24;;;;;;;0.20;0.20;;;;;;;9.03;100.00;98909.28;5115522;28;20035;-38
2024/01/02 10:22:08;;;;;;;0.77;0.40;;;;;;;9.00;100.00;98904.38;5115321;27;20096;-36
2024/01/02 10:24:49;;;;;;;0.40;0.38;;;;;;;9.01;100.00;98902.53;5115557;28;20043;-36
2024/01/02 10:27:15;;;;;;;0.55;0.40;;;;;;;9.15;100.00;98901.56;5115177;28;20047;-35
2024/01/02 10:30:07;;;;;;;0.50;0.50;;;;;;;9.13;100.00;98879.72;5115277;28;20426;-35
2024/01/02 10:32:54;;;;;;;1.33;0.35;;;;;;;9.13;100.00;98879.72;5115270;28;20092;-36
2024/01/02 10:35:44;;;;;;;3.90;0.50;;;;;;;9.10;100.00;98880.09;5115183;28;20120;-35
2024/01/02 10:38:24;;;;;;;0.47;0.40;;;;;;;9.07;100.00;98877.84;5114849;28;20478;-36
2024/01/02 10:40:58;;;;;;;0.57;0.40;;;;;;;8.96;100.00;98864.09;5115102;28;20032;-36
2024/01/02 10:43:37;;;;;;;0.32;0.30;;;;;;;9.10;100.00;98862.31;5115251;28;20035;-37
2024/01/02 10:46:27;;;;;;;0.43;0.30;;;;;;;9.20;100.00;98841.53;5114602;28;20410;-36
2024/01/02 10:49:23;;;;;;;0.47;0.40;;;;;;;9.13;100.00;98855.81;5114829;28;20044;-38
2024/01/02 10:52:02;;;;;;;1.08;0.50;;;;;;;9.11;100.00;98866.59;5115068;28;20376;-36
2024/01/02 10:54:31;;;;;;;0.68;0.50;;;;;;;9.31;100.00;98844.63;5114825;28;20043;-36
2024/01/02 10:57:00;;;;;;;0.93;0.40;;;;;;;9.32;100.00;98854.22;5114419;28;20478;-36
2024/01/02 10:59:32;;;;;;;0.32;0.32;;;;;;;9.29;100.00;98836.84;5114854;28;20038;-35
2024/01/02 11:02:36;;;;;;;0.52;0.30;;;;;;;9.42;100.00;98828.91;5114729;28;20031;-36
2024/01/02 11:05:23;;;;;;;0.30;0.30;;;;;;;9.36;100.00;98826.25;5113090;28;20043;-36
2024/01/02 11:08:01;;;;;;;0.60;0.40;;;;;;;9.50;100.00;98818.09;5114419;28;20047;-36
2024/01/02 11:10:29;;;;;;;0.50;0.50;;;;;;;9.54;100.00;98797.25;5114540;28;20034;-38
2024/01/02 11:12:57;;;;;;;;;;;;;;;9.68;100.00;98790.13;5114928;28;20036;-35
2024/01/02 11:15:26;;;;;;;0.43;0.43;;;;;;;9.64;100.00;98786.22;5114426;28;20030;-37
2024/01/02 11:17:54;;;;;;;0.43;0.43;;;;;;;9.70;100.00;98780.09;5116368;28;20036;-35
2024/01/02 11:20:21;;;;;;;0.43;0.43;;;;;;;9.64;100.00;98775.59;5117274;28;20036;-38
2024/01/02 11:22:59;;;;;;;0.65;0.40;;;;;;;9.79;100.00;98784.22;5114509;28;20035;-35
2024/01/02 11:25:29;;;;;;;0.22;0.22;;;;;;;9.83;100.00;98769.47;5114190;28;20074;-35
2024/01/02 11:27:56;;;;;;;0.85;0.40;;;;;;;9.69;100.00;98770.50;5114027;28;20036;-35
2024/01/02 11:30:24;;;;;;;0.22;0.22;;;;;;;9.75;100.00;98761.69;5114467;28;20449;-35
2024/01/02 11:33:18;;;;;;;0.38;0.38;;;;;;;9.96;100.00;98763.34;5114063;28;20031;-37
2024/01/02 11:35:51;;;;;;;0.55;0.40;;;;;;;9.85;100.00;98763.97;5112737;28;20109;-35
2024/01/02 11:38:23;;;;;;;0.85;0.50;;;;;;;9.95;100.00;98759.03;5114259;28;20107;-34
2024/01/02 11:41:09;;;;;;;1.85;0.70;;;;;;;9.96;100.00;98755.34;5113830;28;20122;-35
2024/01/02 11:43:51;;;;;;;0.50;0.45;;;;;;;9.77;100.00;98751.66;5114362;28;20044;-36
2024/01/02 11:46:16;;;;;;;1.73;0.50;;;;;;;9.84;100.00;98744.50;5115480;28;20035;-34
2024/01/02 11:49:05;;;;;;;1.23;0.60;;;;;;;9.79;100.00;98728.38;5116911;27;20501;-34
2024/01/02 11:51:34;;;;;;;1.77;0.65;;;;;;;9.79;100.00;98731.84;5104976;28;20550;-34
2024/01/02 11:54:21;;;;;;;1.30;0.60;;;;;;;9.80;100.00;98716.72;5117276;28;20042;-35
2024/01/02 11:56:47;;;;;;;0.80;0.50;;;;;;;9.81;100.00;98731.63;5116024;28;20478;-37
2024/01/02 11:59:45;;;;;;;0.40;0.40;;;;;;;9.75;100.00;98716.50;5117434;28;20039;-35
2024/01/02 12:02:20;;;;;;;0.43;0.43;;;;;;;9.70;100.00;98718.94;5118093;28;20046;-34
2024/01/02 12:05:02;;;;;;;1.58;0.70;;;;;;;9.76;100.00;98720.78;5114537;28;20126;-34
2024/01/02 12:07:33;;;;;;;0.40;0.40;;;;;;;9.69;100.00;98709.34;5113357;28;20032;-38
2024/01/02 12:09:59;;;;;;;0.50;0.50;;;;;;;9.74;100.00;98706.88;5113545;28;20487;-37
2024/01/02 12:12:35;;;;;;;0.90;0.40;;;;;;;9.71;100.00;98707.28;5113455;28;20112;-35
2024/01/02 12:15:30;;;;;;;0.40;0.40;;;;;;;9.62;100.00;98706.69;5113475;28;20114;-35
2024/01/02 12:18:02;;;;;;;0.52;0.45;;;;;;;9.59;100.00;98688.50;5099916;28;20483;-34
2024/01/02 12:20:46;;;;;;;0.28;0.22;;;;;;;9.67;100.00;98685.63;5113165;28;20031;-36
2024/01/02 12:23:12;;;;;;;0.30;0.30;;;;;;;9.69;100.00;98690.72;5112067;28;20073;-37
2024/01/02 12:25:42;;;;;;;0.45;0.43;;;;;;;9.73;100.00;98679.47;5113024;28;20024;-33
2024/01/02 12:28:09;;;;;;;3.25;0.43;;;;;;;9.58;100.00;98670.06;5112977;28;20448;-34
2024/01/02 12:30:43;;;;;;;0.50;0.50;;;;;;;9.56;100.00;98672.13;5112525;28;20036;-35
2024/01/02 12:33:13;;;;;;;1.02;0.40;;;;;;;9.70;100.00;98673.75;5112714;28;20082;-35
2024/01/02 12:36:03;;;;;;;0.80;0.47;;;;;;;9.60;100.00;98673.34;5112574;28;20047;-36
2024/01/02 12:38:46;;;;;;;1.05;0.32;;;;;;;9.65;100.00;98655.78;5112035;28;20039;-36
2024/01/02 12:41:17;;;;;;;1.83;0.47;;;;;;;9.71;100.00;98659.41;5112630;28;20031;-35
2024/01/02 12:43:48;;;;;;;0.77;0.50;;;;;;;9.62;100.00;98644.72;5112717;28;20046;-35
2024/01/02 12:46:19;;;;;;;0.22;0.22;;;;;;;9.69;100.00;98646.34;5109677;28;20038;-34
2024/01/02 12:48:55;;;;;;;0.88;0.40;;;;;;;9.63;100.00;98641.03;5112952;28;20039;-35
2024/01/02 12:51:21;;;;;;;0.50;0.40;;;;;;;9.59;100.00;98634.50;5112849;28;20043;-36
2024/01/02 12:53:50;;;;;;;0.73;0.60;;;;;;;9.58;100.00;98631.00;5112666;28;20024;-37
2024/01/02 12:56:23;;;;;;;0.85;0.55;;;;;;;9.73;100.00;98644.09;5112395;28;20459;-35
2024/01/02 12:58:50;;;;;;;0.30;0.30;;;;;;;9.64;100.00;98632.84;5112699;28;20035;-35
2024/01/02 13:01:16;;;;;;;0.70;0.55;;;;;;;9.66;100.00;98635.31;5112229;28;20028;-34
2024/01/02 13:03:47;;;;;;;0.30;0.30;;;;;;;9.74;100.00;98624.44;5112091;28;20066;-35
2024/01/02 13:06:13;;;;;;;0.57;0.43;;;;;;;9.56;100.00;98611.78;5111662;28;20027;-35
2024/01/02 13:08:39;;;;;;;1.05;0.45;;;;;;;9.57;100.00;98617.91;5112132;28;20039;-34
2024/01/02 13:11:05;;;;;;;0.55;0.40;;;;;;;9.62;100.00;98610.97;5111820;28;20061;-36
2024/01/02 13:13:31;;;;;;;0.20;0.20;;;;;;;9.56;100.00;98597.69;5111753;28;20047;-35
2024/01/02 13:15:59;;;;;;;0.45;0.40;;;;;;;9.55;100.00;98614.66;5111754;28;20027;-34
2024/01/02 13:18:25;;;;;;;0.35;0.35;;;;;;;9.66;100.00;98598.09;5109458;28;20509;-34
2024/01/02 13:20:52;;;;;;;0.65;0.40;;;;;;;9.59;100.00;98605.25;5112129;28;20036;-35
2024/01/02 13:23:17;;;;;;;0.52;0.52;;;;;;;9.58;100.00;98599.09;5111795;28;21335;-34
2024/01/02 13:25:43;;;;;;;0.35;0.32;;;;;;;9.59;100.00;98602.59;5091763;28;20044;-34
2024/01/02 13:28:18;;;;;;;0.60;0.43;;;;;;;9.46;100.00;98620.19;5091931;28;20051;-35
2024/01/02 13:30:45;;;;;;;0.93;0.60;;;;;;;9.59;100.00;98598.09;5091916;28;20064;-35
2024/01/02 13:33:11;;;;;;;0.80;0.57;;;;;;;9.52;100.00;98592.78;5092042;28;20042;-34
2024/01/02 13:35:37;;;;;;;1.08;0.55;;;;;;;9.45;100.00;98588.47;5091852;28;20085;-35
2024/01/02 13:38:04;;;;;;;0.95;0.60;;;;;;;9.54;100.00;98599.75;5091328;28;20380;-35
2024/01/02 13:40:30;;;;;;;0.40;0.40;;;;;;;9.52;100.00;98591.97;5091848;28;20043;-35
2024/01/02 13:43:03;;;;;;;0.88;0.73;;;;;;;9.48;100.00;98594.22;5093323;28;20499;-34
2024/01/02 13:45:32;;;;;;;2.05;0.88;;;;;;;9.58;100.00;98596.44;5096074;28;20484;-35
2024/01/02 13:48:12;;;;;;;2.95;1.17;;;;;;;9.50;100.00;98604.63;5095720;28;20024;-35
2024/01/02 13:50:39;;;;;;;1.58;0.70;;;;;;;9.45;100.00;98607.09;5095832;28;20115;-35
2024/01/02 13:53:08;;;;;;;1.23;0.60;;;;;;;9.50;100.00;98586.03;5095664;28;20040;-34
2024/01/02 13:55:38;;;;;;;2.08;0.95;;;;;;;11.13;100.00;98595.38;5095704;28;20441;-37
2024/01/02 13:58:09;;;;;;;1.55;0.90;;;;;;;11.85;100.00;98602.97;5095366;28;20046;-35
2024/01/02 14:00:38;;;;;;;1.20;0.80;;;;;;;9.72;100.00;98602.59;5095584;28;20048;-35
2024/01/02 14:03:06;;;;;;;1.35;0.60;;;;;;;9.42;100.00;98594.22;5095611;28;20068;-35
2024/01/02 14:05:32;;;;;;;1.67;0.80;;;;;;;9.46;100.00;98590.16;5095416;28;20047;-36
2024/01/02 14:08:00;;;;;;;0.65;0.50;;;;;;;9.38;100.00;98600.97;5095237;28;20035;-37
2024/01/02 14:10:27;;;;;;;1.13;0.50;;;;;;;9.37;100.00;98613.44;5095437;28;20060;-37
2024/01/02 14:12:52;;;;;;;1.58;0.50;;;;;;;9.42;100.00;98592.38;5095480;28;20035;-35
2024/01/02 14:15:25;;;;;;;1.33;0.68;;;;;;;9.38;100.00;98596.47;5095309;28;20031;-36
2024/01/02 14:17:58;;;;;;;1.48;0.60;;;;;;;9.40;100.00;98612.22;5094999;28;20507;-35
2024/01/02 14:20:32;;;;;;;0.75;0.57;;;;;;;9.51;100.00;98591.13;5095007;28;20032;-35
2024/01/02 14:23:02;;;;;;;1.63;0.60;;;;;;;9.42;100.00;98597.69;5098470;28;20036;-36
2024/01/02 14:25:34;;;;;;;0.45;0.25;;;;;;;9.31;100.00;98587.69;5097426;28;20031;-37
2024/01/02 14:28:21;;;;;;;0.40;0.40;;;;;;;9.42;100.00;98592.38;5094670;28;20031;-35
2024/01/02 14:30:59;;;;;;;;;;;;;;;9.43;100.00;98578.06;5095335;28;20402;-35
2024/01/02 14:33:36;;;;;;;0.82;0.60;;;;;;;9.40;100.00;98577.69;5094495;28;20317;-35
2024/01/02 14:36:20;;;;;;;1.52;0.95;;;;;;;9.40;100.00;98578.50;5094463;28;20114;-35
2024/01/02 14:39:10;;;;;;;1.02;0.60;;;;;;;9.45;100.00;98560.09;5094884;28;20036;-34
2024/01/02 14:42:08;;;;;;;0.65;0.50;;;;;;;9.49;100.00;98553.31;5094604;28;20475;-34
2024/01/02 14:44:36;;;;;;;;;;;;;;;9.43;100.00;98548.84;5095208;28;20040;-35
2024/01/02 14:47:21;;;;;;;0.52;0.50;;;;;;;9.33;100.00;98558.28;5094345;28;19912;-35
2024/01/02 14:49:53;;;;;;;1.48;0.57;;;;;;;9.39;100.00;98542.31;5094727;28;20039;-35
2024/01/02 14:52:27;;;;;;;1.02;0.60;;;;;;;9.41;100.00;98548.22;5094826;28;20040;-36
2024/01/02 14:55:01;;;;;;;1.05;0.55;;;;;;;9.38;100.00;98535.34;5094063;28;20036;-35
2024/01/02 14:57:39;;;;;;;0.45;0.40;;;;;;;9.29;100.00;98546.41;5094096;28;20032;-34
2024/01/02 15:00:11;;;;;;;1.25;0.52;;;;;;;9.34;100.00;98531.47;5094449;28;20075;-34
2024/01/02 15:02:56;;;;;;;0.60;0.22;;;;;;;9.38;100.00;98527.38;5094204;28;20040;-34
2024/01/02 15:05:29;;;;;;;1.08;0.50;;;;;;;9.35;100.00;98517.16;5094118;28;20040;-34
2024/01/02 15:08:03;;;;;;;0.57;0.38;;;;;;;9.46;100.00;98524.50;5094038;28;20114;-37
2024/01/02 15:10:31;;;;;;;0.98;0.32;;;;;;;9.42;100.00;98510.00;5094285;28;20055;-34
2024/01/02 15:13:06;;;;;;;0.20;0.20;;;;;;;9.55;100.00;98511.00;5094185;28;20107;-35
2024/01/02 15:15:43;;;;;;;0.40;0.40;;;;;;;9.48;100.00;98503.03;5094269;28;20032;-35
2024/01/02 15:18:14;;;;;;;1.13;0.52;;;;;;;9.53;100.00;98503.22;5094151;28;20032;-34
2024/01/02 15:21:03;;;;;;;0.38;0.38;;;;;;;9.51;100.00;98497.28;5093873;28;20514;-35
2024/01/02 15:24:10;;;;;;;0.35;0.30;;;;;;;9.59;100.00;98502.41;5093941;28;20067;-34
2024/01/02 15:27:04;;;;;;;1.02;1.00;;;;;;;9.47;100.00;98485.47;5093629;28;20077;-35
2024/01/02 15:29:36;;;;;;;0.35;0.35;;;;;;;9.57;100.00;98491.13;5093386;28;20105;-34
2024/01/02 15:32:13;;;;;;;0.40;0.40;;;;;;;9.56;100.00;98488.69;5093240;28;20032;-35
2024/01/02 15:34:56;;;;;;;0.43;0.32;;;;;;;9.58;100.00;98492.78;5093598;28;20032;-34
2024/01/02 15:37:29;;;;;;;0.50;0.50;;;;;;;9.45;100.00;98468.88;5093476;28;20115;-35
2024/01/02 15:40:08;;;;;;;0.20;0.20;;;;;;;9.61;100.00;98483.56;5093614;28;20035;-34
2024/01/02 15:42:35;;;;;;;2.55;1.15;;;;;;;9.59;100.00;98482.97;5093758;28;20479;-35
2024/01/02 15:45:15;;;;;;;0.57;0.43;;;;;;;9.52;100.00;98473.19;5093553;28;20519;-34
2024/01/02 15:48:02;;;;;;;0.22;0.20;;;;;;;9.55;100.00;98455.19;5093667;28;20392;-34
2024/01/02 15:50:47;;;;;;;0.27;0.27;;;;;;;9.72;100.00;98454.50;5093496;28;20109;-34
2024/01/02 15:53:25;;;;;;;0.70;0.40;;;;;;;9.64;100.00;98457.38;5102440;28;20024;-33
2024/01/02 15:56:04;;;;;;;0.22;0.22;;;;;;;9.61;100.00;98454.34;5113145;28;20023;-34
2024/01/02 15:58:45;;;;;;;0.63;0.40;;;;;;;9.70;100.00;98461.03;5111884;28;20040;-35
2024/01/02 16:01:13;;;;;;;0.82;0.40;;;;;;;9.65;100.00;98447.56;5113253;28;20024;-33
2024/01/02 16:04:00;;;;;;;0.50;0.50;;;;;;;9.55;100.00;98436.56;5113259;28;20023;-34
2024/01/02 16:07:01;;;;;;;0.40;0.40;;;;;;;9.62;100.00;98432.84;5111012;28;20062;-35
2024/01/02 16:09:44;;;;;;;0.40;0.40;;;;;;;9.71;100.00;98420.94;5050164;28;20037;-35
2024/01/02 16:12:26;;;;;;;0.77;0.43;;;;;;;9.60;100.00;98428.78;5107045;28;20118;-36
2024/01/02 16:15:30;;;;;;;0.80;0.40;;;;;;;9.50;100.00;98414.09;5112956;28;20554;-34
2024/01/02 16:18:38;;;;;;;1.70;0.75;;;;;;;9.73;100.00;98402.13;5110299;28;20020;-34
2024/01/02 16:21:33;;;;;;;0.73;0.50;;;;;;;9.74;100.00;98409.09;5111526;28;20043;-37
2024/01/02 16:24:25;;;;;;;1.15;0.57;;;;;;;9.75;100.00;98378.81;5110483;28;20402;-35
2024/01/02 16:27:09;;;;;;;0.50;0.50;;;;;;;9.65;100.00;98383.75;5112128;28;20030;-35
2024/01/02 16:30:05;;;;;;;1.88;1.00;;;;;;;9.68;100.00;98384.16;5110353;28;20040;-34
2024/01/02 16:32:57;;;;;;;0.65;0.55;;;;;;;9.77;100.00;98360.78;5112413;28;20512;-34
2024/01/02 16:35:41;;;;;;;0.90;0.80;;;;;;;9.81;100.00;98372.63;5111253;28;20039;-35
2024/01/02 16:38:11;;;;;;;1.10;0.80;;;;;;;9.85;100.00;98367.72;5111243;28;20034;-35
2024/01/02 16:40:42;;;;;;;0.32;0.32;;;;;;;9.90;100.00;98359.88;5110283;28;20398;-35
2024/01/02 16:43:08;;;;;;;0.35;0.35;;;;;;;9.87;100.00;98358.47;5112604;28;20460;-34
2024/01/02 16:45:34;;;;;;;0.65;0.60;;;;;;;9.88;100.00;98341.50;5109818;28;20689;-34
2024/01/02 16:48:02;;;;;;;0.40;0.38;;;;;;;9.96;100.00;98353.72;5112245;28;20028;-34
2024/01/02 16:50:27;;;;;;;1.10;0.70;;;;;;;9.96;100.00;98348.41;5112404;28;20031;-35
2024/01/02 16:52:54;;;;;;;0.57;0.57;;;;;;;9.92;100.00;98357.84;5112465;28;20395;-34
2024/01/02 16:55:22;;;;;;;0.95;0.50;;;;;;;10.10;100.00;98354.44;5112327;28;20538;-34
2024/01/02 16:57:48;;;;;;;1.33;0.63;;;;;;;9.94;100.00;98351.28;5111730;28;20065;-35
2024/01/02 17:00:16;;;;;;;0.40;0.40;;;;;;;9.98;100.00;98349.81;5112635;28;20394;-34
2024/01/02 17:02:42;;;;;;;;;;;;;;;9.89;100.00;98339.66;5113041;28;20047;-34
2024/01/02 17:05:10;;;;;;;0.65;0.57;;;;;;;9.95;100.00;98328.97;5112565;28;19916;-35
2024/01/02 17:07:36;;;;;;;0.40;0.40;;;;;;;9.87;100.00;98337.22;5112341;28;20502;-35
2024/01/02 17:10:05;;;;;;;0.32;0.32;;;;;;;9.92;100.00;98318.78;5112608;28;20028;-34
2024/01/02 17:12:35;;;;;;;0.55;0.40;;;;;;;9.87;100.00;98315.94;5112694;28;20035;-34
2024/01/02 17:15:03;;;;;;;1.92;0.70;;;;;;;9.76;100.00;98305.97;5112399;28;20054;-36
2024/01/02 17:17:30;;;;;;;1.00;0.50;;;;;;;9.70;100.00;98312.97;5111816;28;20031;-34
2024/01/02 17:19:56;;;;;;;0.98;0.80;;;;;;;9.75;100.00;98299.84;5112544;28;20118;-34